createdAt,value
2019-05-22T00:01:45.632Z,13.30
2019-05-22T00:04:17.181Z,13.30
2019-05-22T00:06:47.947Z,13.30
2019-05-22T00:09:26.023Z,13.30
2019-05-22T00:11:55.821Z,13.30
2019-05-22T00:14:26.511Z,13.30
2019-05-22T00:16:56.467Z,13.30
2019-05-22T00:19:26.398Z,13.30
2019-05-22T00:22:00.786Z,13.30
2019-05-22T00:24:30.174Z,13.30
2019-05-22T00:27:01.003Z,13.30
2019-05-22T00:29:32.903Z,13.30
2019-05-22T00:32:03.657Z,13.20
2019-05-22T00:34:33.625Z,13.20
2019-05-22T00:37:02.638Z,13.20
2019-05-22T00:39:32.236Z,13.20
2019-05-22T00:42:01.406Z,13.20
2019-05-22T00:44:30.620Z,13.20
2019-05-22T00:47:01.341Z,13.20
2019-05-22T00:49:30.775Z,13.20
2019-05-22T00:52:07.009Z,13.20
2019-05-22T00:54:58.542Z,13.20
2019-05-22T00:57:42.546Z,13.20
2019-05-22T01:00:24.246Z,13.10
2019-05-22T01:02:56.208Z,13.10
2019-05-22T01:05:26.461Z,13.10
2019-05-22T01:07:57.359Z,13.10
2019-05-22T01:10:29.185Z,13.10
2019-05-22T01:13:03.447Z,13.10
2019-05-22T01:15:35.016Z,13.10
2019-05-22T01:18:09.105Z,13.10
2019-05-22T01:20:40.599Z,13.10
2019-05-22T01:23:15.698Z,13.10
2019-05-22T01:25:45.875Z,13.10
2019-05-22T01:28:16.183Z,13.10
2019-05-22T01:30:57.509Z,13.00
2019-05-22T01:33:44.696Z,13.10
2019-05-22T01:36:35.483Z,13.00
2019-05-22T01:39:24.090Z,13.10
2019-05-22T01:41:54.843Z,13.00
2019-05-22T01:44:24.778Z,13.00
2019-05-22T01:46:55.501Z,13.00
2019-05-22T01:49:26.827Z,13.00
2019-05-22T01:51:56.415Z,13.00
2019-05-22T01:54:27.782Z,13.00
2019-05-22T01:57:04.143Z,13.00
2019-05-22T01:59:36.714Z,13.00
2019-05-22T02:02:07.622Z,13.00
2019-05-22T02:04:36.707Z,13.00
2019-05-22T02:07:07.817Z,13.00
2019-05-22T02:09:38.179Z,13.00
2019-05-22T02:12:15.868Z,13.00
2019-05-22T02:14:46.274Z,13.00
2019-05-22T02:17:16.235Z,13.00
2019-05-22T02:19:46.094Z,13.00
2019-05-22T02:22:15.259Z,13.00
2019-05-22T02:24:45.088Z,13.00
2019-05-22T02:27:14.249Z,13.00
2019-05-22T02:29:44.564Z,13.00
2019-05-22T02:32:14.571Z,12.90
2019-05-22T02:34:44.002Z,12.90
2019-05-22T02:37:13.087Z,12.90
2019-05-22T02:39:42.898Z,12.90
2019-05-22T02:42:15.301Z,12.90
2019-05-22T02:44:45.197Z,12.90
2019-05-22T02:47:20.453Z,12.90
2019-05-22T02:49:48.979Z,12.90
2019-05-22T02:52:18.062Z,12.90
2019-05-22T02:54:47.209Z,12.90
2019-05-22T02:57:17.681Z,12.90
2019-05-22T02:59:46.952Z,12.90
2019-05-22T03:02:23.505Z,12.90
2019-05-22T03:05:03.652Z,12.90
2019-05-22T03:07:33.769Z,12.90
2019-05-22T03:10:03.460Z,12.90
2019-05-22T03:12:33.130Z,12.90
2019-05-22T03:15:04.118Z,12.90
2019-05-22T03:17:34.703Z,12.90
2019-05-22T03:20:08.737Z,12.90
2019-05-22T03:22:44.385Z,12.90
2019-05-22T03:25:15.832Z,12.90
2019-05-22T03:27:47.859Z,12.80
2019-05-22T03:30:21.480Z,12.90
2019-05-22T03:32:52.153Z,12.90
2019-05-22T03:35:21.782Z,12.90
2019-05-22T03:37:53.249Z,12.90
2019-05-22T03:40:22.605Z,12.80
2019-05-22T03:42:51.650Z,12.80
2019-05-22T03:45:22.359Z,12.80
2019-05-22T03:47:53.013Z,12.80
2019-05-22T03:50:22.823Z,12.80
2019-05-22T03:52:51.886Z,12.80
2019-05-22T03:55:20.935Z,12.80
2019-05-22T03:57:49.990Z,12.80
2019-05-22T04:00:19.687Z,12.80
2019-05-22T04:02:53.388Z,12.80
2019-05-22T04:05:23.135Z,12.80
2019-05-22T04:07:54.215Z,12.80
2019-05-22T04:10:25.943Z,12.80
2019-05-22T04:12:55.399Z,12.80
2019-05-22T04:15:25.264Z,12.80
2019-05-22T04:17:54.748Z,12.80
2019-05-22T04:20:23.907Z,12.80
2019-05-22T04:22:57.757Z,12.80
2019-05-22T04:25:29.739Z,12.80
2019-05-22T04:27:58.807Z,12.90
2019-05-22T04:30:31.855Z,12.90
2019-05-22T04:33:01.607Z,12.90
2019-05-22T04:35:31.744Z,12.90
2019-05-22T04:38:18.582Z,12.90
2019-05-22T04:40:49.054Z,12.90
2019-05-22T04:43:23.845Z,12.90
2019-05-22T04:45:53.816Z,12.90
2019-05-22T04:48:23.648Z,13.00
2019-05-22T04:50:53.274Z,13.00
2019-05-22T04:53:22.436Z,13.00
2019-05-22T04:55:52.622Z,13.00
2019-05-22T04:58:30.604Z,13.00
2019-05-22T05:00:59.707Z,13.00
2019-05-22T05:03:29.362Z,13.10
2019-05-22T05:05:58.835Z,13.10
2019-05-22T05:08:30.020Z,13.10
2019-05-22T05:11:18.964Z,13.20
2019-05-22T05:13:48.802Z,13.20
2019-05-22T05:16:22.159Z,13.20
2019-05-22T05:18:51.939Z,13.20
2019-05-22T05:21:21.522Z,13.20
2019-05-22T05:23:50.973Z,13.30
2019-05-22T05:26:20.810Z,13.30
2019-05-22T05:28:50.651Z,13.40
2019-05-22T05:31:20.870Z,13.40
2019-05-22T05:34:28.543Z,13.40
2019-05-22T05:37:00.680Z,13.50
2019-05-22T05:40:27.050Z,13.50
2019-05-22T05:42:58.318Z,13.50
2019-05-22T05:45:47.667Z,13.60
2019-05-22T05:48:19.898Z,13.60
2019-05-22T05:51:25.556Z,13.60
2019-05-22T05:53:59.697Z,13.60
2019-05-22T05:56:30.150Z,13.70
2019-05-22T05:59:00.420Z,13.80
2019-05-22T06:01:34.677Z,13.80
2019-05-22T06:04:05.139Z,13.90
2019-05-22T06:07:13.466Z,13.90
2019-05-22T06:09:42.711Z,14.00
2019-05-22T06:12:13.045Z,14.00
2019-05-22T06:14:42.059Z,14.10
2019-05-22T06:17:52.567Z,14.10
2019-05-22T06:20:23.911Z,14.10
2019-05-22T06:23:48.292Z,14.20
2019-05-22T06:26:55.605Z,14.20
2019-05-22T06:29:28.034Z,14.30
2019-05-22T06:32:43.043Z,14.30
2019-05-22T06:35:12.710Z,14.30
2019-05-22T06:37:53.401Z,14.30
2019-05-22T06:40:22.710Z,14.40
2019-05-22T06:43:30.309Z,14.40
2019-05-22T06:45:59.321Z,14.50
2019-05-22T06:48:28.356Z,14.50
2019-05-22T06:50:57.488Z,14.50
2019-05-22T06:53:26.632Z,14.60
2019-05-22T06:55:55.773Z,14.70
2019-05-22T06:58:25.114Z,14.80
2019-05-22T07:00:54.128Z,15.00
2019-05-22T07:03:24.160Z,15.10
2019-05-22T07:06:05.092Z,15.30
2019-05-22T07:08:34.200Z,15.50
2019-05-22T07:11:03.216Z,15.60
2019-05-22T07:13:32.983Z,15.80
2019-05-22T07:16:03.614Z,16.00
2019-05-22T07:18:32.747Z,16.10
2019-05-22T07:21:01.797Z,16.30
2019-05-22T07:23:33.064Z,16.50
2019-05-22T07:26:04.162Z,16.60
2019-05-22T07:28:33.493Z,16.60
2019-05-22T07:31:02.830Z,16.70
2019-05-22T07:33:32.022Z,16.70
2019-05-22T07:36:11.151Z,16.80
2019-05-22T07:38:32.465Z,16.90
2019-05-22T07:41:01.574Z,17.00
2019-05-22T07:43:31.100Z,17.20
2019-05-22T07:46:00.649Z,17.40
2019-05-22T07:48:30.206Z,17.60
2019-05-22T07:50:59.331Z,17.90
2019-05-22T07:53:28.347Z,18.20
2019-05-22T07:55:58.384Z,18.50
2019-05-22T07:58:28.708Z,18.60
2019-05-22T08:01:03.106Z,18.70
2019-05-22T08:03:32.525Z,18.90
2019-05-22T08:06:01.662Z,19.20
2019-05-22T08:08:33.070Z,19.60
2019-05-22T08:11:02.261Z,20.30
2019-05-22T08:13:32.163Z,21.10
2019-05-22T08:16:01.570Z,21.90
2019-05-22T08:18:36.406Z,22.80
2019-05-22T08:21:05.712Z,23.70
2019-05-22T08:23:35.263Z,24.60
2019-05-22T08:26:07.444Z,25.40
2019-05-22T08:28:36.888Z,25.90
2019-05-22T08:31:07.411Z,26.40
2019-05-22T08:33:36.596Z,26.90
2019-05-22T08:36:06.036Z,27.00
2019-05-22T08:38:35.803Z,27.20
2019-05-22T08:41:07.030Z,26.70
2019-05-22T08:43:55.829Z,27.20
2019-05-22T08:46:06.981Z,28.00
2019-05-22T08:48:36.303Z,28.30
2019-05-22T08:51:06.552Z,28.70
2019-05-22T08:53:46.886Z,27.80
2019-05-22T08:56:07.086Z,26.80
2019-05-22T08:58:39.726Z,26.20
2019-05-22T09:01:11.823Z,25.60
2019-05-22T09:03:41.095Z,25.60
2019-05-22T09:06:10.317Z,25.10
2019-05-22T09:08:39.429Z,24.90
2019-05-22T09:11:08.822Z,25.00
2019-05-22T09:13:38.235Z,24.70
2019-05-22T09:16:08.143Z,24.40
2019-05-22T09:18:37.160Z,24.10
2019-05-22T09:21:06.458Z,23.80
2019-05-22T09:23:36.792Z,23.70
2019-05-22T09:26:06.455Z,23.50
2019-05-22T09:28:35.594Z,23.40
2019-05-22T09:31:05.601Z,23.70
2019-05-22T09:33:35.739Z,24.00
2019-05-22T09:36:04.912Z,24.40
2019-05-22T09:38:34.150Z,24.80
2019-05-22T09:41:03.771Z,25.00
2019-05-22T09:43:33.632Z,25.30
2019-05-22T09:46:03.586Z,25.40
2019-05-22T09:48:34.298Z,25.40
2019-05-22T09:51:05.376Z,25.30
2019-05-22T09:53:34.815Z,25.20
2019-05-22T09:56:04.681Z,25.20
2019-05-22T09:58:33.729Z,25.10
2019-05-22T10:01:03.389Z,25.30
2019-05-22T10:03:32.602Z,25.40
2019-05-22T10:06:02.003Z,25.40
2019-05-22T10:08:31.399Z,25.40
2019-05-22T10:11:00.766Z,25.40
2019-05-22T10:13:30.164Z,25.40
2019-05-22T10:15:59.537Z,25.40
2019-05-22T10:18:28.698Z,25.40
2019-05-22T10:20:58.370Z,25.40
2019-05-22T10:23:30.536Z,25.50
2019-05-22T10:25:59.548Z,25.60
2019-05-22T10:28:28.972Z,25.70
2019-05-22T10:30:59.150Z,25.80
2019-05-22T10:33:28.831Z,26.00
2019-05-22T10:35:57.885Z,26.20
2019-05-22T10:38:27.179Z,26.30
2019-05-22T10:40:59.179Z,26.50
2019-05-22T10:43:27.427Z,26.60
2019-05-22T10:45:56.451Z,26.80
2019-05-22T10:48:25.539Z,26.90
2019-05-22T10:50:54.591Z,27.00
2019-05-22T10:53:33.107Z,27.00
2019-05-22T10:55:54.778Z,27.00
2019-05-22T10:58:23.836Z,27.10
2019-05-22T11:00:53.349Z,27.20
2019-05-22T11:03:23.003Z,27.30
2019-05-22T11:06:06.586Z,27.40
2019-05-22T11:08:23.193Z,27.30
2019-05-22T11:10:52.444Z,27.30
2019-05-22T11:13:21.561Z,27.30
2019-05-22T11:15:51.616Z,27.30
2019-05-22T11:18:20.736Z,27.10
2019-05-22T11:20:49.756Z,27.10
2019-05-22T11:23:18.804Z,27.10
2019-05-22T11:25:47.840Z,27.00
2019-05-22T11:28:16.874Z,27.00
2019-05-22T11:30:46.279Z,26.90
2019-05-22T11:33:15.531Z,26.90
2019-05-22T11:35:45.102Z,27.00
2019-05-22T11:38:14.115Z,26.90
2019-05-22T11:40:43.098Z,26.90
2019-05-22T11:43:16.471Z,26.80
2019-05-22T11:46:02.540Z,26.80
2019-05-22T11:48:31.556Z,26.70
2019-05-22T11:51:01.869Z,26.50
2019-05-22T11:53:31.041Z,26.40
2019-05-22T11:56:00.354Z,26.30
2019-05-22T11:58:29.467Z,26.30
2019-05-22T12:00:59.897Z,26.30
2019-05-22T12:03:29.568Z,26.30
2019-05-22T12:05:59.419Z,26.20
2019-05-22T12:08:29.086Z,26.20
2019-05-22T12:10:58.369Z,26.30
2019-05-22T12:13:27.812Z,26.30
2019-05-22T12:15:58.076Z,26.20
2019-05-22T12:18:31.658Z,26.20
2019-05-22T12:21:00.748Z,26.20
2019-05-22T12:23:30.215Z,26.30
2019-05-22T12:25:59.251Z,26.30
2019-05-22T12:28:28.244Z,26.40
2019-05-22T12:30:57.934Z,26.40
2019-05-22T12:33:27.321Z,26.50
2019-05-22T12:35:56.863Z,26.50
2019-05-22T12:38:28.811Z,26.40
2019-05-22T12:40:58.074Z,26.50
2019-05-22T12:43:28.031Z,26.50
2019-05-22T12:45:57.383Z,26.50
2019-05-22T12:48:26.944Z,26.50
2019-05-22T12:50:56.463Z,26.50
2019-05-22T12:53:25.531Z,26.60
2019-05-22T12:55:54.540Z,26.60
2019-05-22T12:58:23.665Z,26.70
2019-05-22T13:00:52.731Z,26.70
2019-05-22T13:03:22.409Z,26.70
2019-05-22T13:05:51.799Z,26.70
2019-05-22T13:08:20.920Z,26.80
2019-05-22T13:10:50.017Z,26.80
2019-05-22T13:13:19.465Z,26.90
2019-05-22T13:15:48.709Z,26.90
2019-05-22T13:18:18.704Z,26.90
2019-05-22T13:20:47.955Z,26.90
2019-05-22T13:23:17.412Z,27.00
2019-05-22T13:25:46.833Z,27.00
2019-05-22T13:28:16.819Z,27.10
2019-05-22T13:30:49.677Z,27.10
2019-05-22T13:33:21.997Z,27.20
2019-05-22T13:35:51.273Z,27.30
2019-05-22T13:38:20.356Z,27.30
2019-05-22T13:40:50.791Z,27.40
2019-05-22T13:43:19.887Z,27.40
2019-05-22T13:45:49.035Z,27.40
2019-05-22T13:48:18.111Z,27.40
2019-05-22T13:50:47.271Z,27.30
2019-05-22T13:53:16.444Z,27.20
2019-05-22T13:55:46.101Z,27.10
2019-05-22T13:58:15.886Z,27.10
2019-05-22T14:00:45.012Z,27.20
2019-05-22T14:03:14.739Z,27.20
2019-05-22T14:05:44.721Z,27.30
2019-05-22T14:08:14.053Z,27.30
2019-05-22T14:10:43.823Z,27.40
2019-05-22T14:13:13.012Z,27.40
2019-05-22T14:15:50.534Z,27.40
2019-05-22T14:18:13.111Z,27.40
2019-05-22T14:20:42.330Z,27.40
2019-05-22T14:23:11.381Z,27.40
2019-05-22T14:25:40.730Z,27.40
2019-05-22T14:28:11.504Z,27.40
2019-05-22T14:30:40.592Z,27.50
2019-05-22T14:33:09.838Z,27.50
2019-05-22T14:35:48.159Z,27.50
2019-05-22T14:38:11.339Z,27.50
2019-05-22T14:40:40.429Z,27.50
2019-05-22T14:43:09.494Z,27.50
2019-05-22T14:45:38.870Z,27.50
2019-05-22T14:48:09.258Z,27.50
2019-05-22T14:50:39.525Z,27.50
2019-05-22T14:53:10.842Z,27.50
2019-05-22T14:55:41.498Z,27.50
2019-05-22T14:58:10.532Z,27.40
2019-05-22T15:00:39.818Z,27.50
2019-05-22T15:03:08.904Z,27.50
2019-05-22T15:05:38.122Z,27.50
2019-05-22T15:08:07.619Z,27.50
2019-05-22T15:10:37.345Z,27.60
2019-05-22T15:13:06.495Z,27.60
2019-05-22T15:15:39.948Z,27.60
2019-05-22T15:18:06.425Z,27.60
2019-05-22T15:20:52.711Z,27.60
2019-05-22T15:23:21.811Z,27.50
2019-05-22T15:25:51.047Z,27.50
2019-05-22T15:28:20.124Z,27.40
2019-05-22T15:30:50.410Z,27.50
2019-05-22T15:33:19.463Z,27.40
2019-05-22T15:35:48.714Z,27.50
2019-05-22T15:38:18.047Z,27.40
2019-05-22T15:40:47.407Z,27.30
2019-05-22T15:43:17.205Z,27.20
2019-05-22T15:45:46.790Z,27.20
2019-05-22T15:48:19.642Z,27.10
2019-05-22T15:50:49.766Z,27.10
2019-05-22T15:53:19.479Z,26.90
2019-05-22T15:55:48.891Z,26.90
2019-05-22T15:58:18.074Z,26.80
2019-05-22T16:00:47.427Z,26.80
2019-05-22T16:03:20.734Z,26.80
2019-05-22T16:05:49.974Z,26.80
2019-05-22T16:08:19.547Z,26.80
2019-05-22T16:10:48.966Z,26.80
2019-05-22T16:13:20.105Z,26.80
2019-05-22T16:15:49.767Z,26.70
2019-05-22T16:18:20.354Z,26.60
2019-05-22T16:20:49.587Z,26.50
2019-05-22T16:23:21.719Z,26.40
2019-05-22T16:25:50.459Z,26.30
2019-05-22T16:28:21.427Z,26.10
2019-05-22T16:30:50.510Z,25.90
2019-05-22T16:33:20.309Z,25.80
2019-05-22T16:35:49.555Z,25.70
2019-05-22T16:38:19.258Z,25.60
2019-05-22T16:40:48.329Z,25.50
2019-05-22T16:43:17.448Z,25.40
2019-05-22T16:45:46.466Z,25.40
2019-05-22T16:48:28.387Z,25.20
2019-05-22T16:50:47.278Z,25.20
2019-05-22T16:53:16.527Z,25.10
2019-05-22T16:55:45.574Z,25.20
2019-05-22T16:58:14.917Z,25.20
2019-05-22T17:00:44.062Z,25.30
2019-05-22T17:03:14.339Z,25.30
2019-05-22T17:05:43.465Z,25.30
2019-05-22T17:08:12.992Z,25.40
2019-05-22T17:10:42.314Z,25.40
2019-05-22T17:13:12.419Z,25.30
2019-05-22T17:15:41.398Z,25.20
2019-05-22T17:18:11.518Z,25.10
2019-05-22T17:20:41.252Z,25.00
2019-05-22T17:23:10.524Z,24.90
2019-05-22T17:25:39.529Z,24.70
2019-05-22T17:28:08.951Z,24.60
2019-05-22T17:30:38.598Z,24.50
2019-05-22T17:33:08.009Z,24.40
2019-05-22T17:35:37.580Z,24.30
2019-05-22T17:38:06.942Z,24.20
2019-05-22T17:40:37.186Z,24.10
2019-05-22T17:43:07.582Z,24.00
2019-05-22T17:45:36.627Z,23.90
2019-05-22T17:48:05.649Z,23.80
2019-05-22T17:50:34.705Z,23.70
2019-05-22T17:53:04.012Z,23.60
2019-05-22T17:55:33.239Z,23.50
2019-05-22T17:58:02.262Z,23.40
2019-05-22T18:00:35.191Z,23.30
2019-05-22T18:03:04.394Z,23.20
2019-05-22T18:05:33.478Z,23.10
2019-05-22T18:08:03.863Z,23.00
2019-05-22T18:10:33.910Z,23.00
2019-05-22T18:13:03.859Z,22.80
2019-05-22T18:15:32.936Z,22.80
2019-05-22T18:18:02.039Z,22.70
2019-05-22T18:20:42.468Z,22.60
2019-05-22T18:23:02.702Z,22.50
2019-05-22T18:25:31.957Z,22.40
2019-05-22T18:28:02.823Z,22.40
2019-05-22T18:30:35.089Z,22.30
2019-05-22T18:33:04.446Z,22.20
2019-05-22T18:35:33.601Z,22.10
2019-05-22T18:38:04.870Z,22.00
2019-05-22T18:40:34.338Z,21.90
2019-05-22T18:43:03.319Z,21.90
2019-05-22T18:45:33.435Z,21.80
2019-05-22T18:48:02.437Z,21.70
2019-05-22T18:50:31.747Z,21.70
2019-05-22T18:53:00.939Z,21.60
2019-05-22T18:55:29.937Z,21.60
2019-05-22T18:57:59.172Z,21.50
2019-05-22T19:00:29.101Z,21.40
2019-05-22T19:02:58.383Z,21.40
2019-05-22T19:05:28.330Z,21.30
2019-05-22T19:07:57.375Z,21.30
2019-05-22T19:10:27.060Z,21.20
2019-05-22T19:12:56.757Z,21.10
2019-05-22T19:15:26.132Z,21.00
2019-05-22T19:17:55.205Z,21.00
2019-05-22T19:20:24.310Z,20.90
2019-05-22T19:23:00.230Z,20.90
2019-05-22T19:25:24.820Z,20.80
2019-05-22T19:27:53.825Z,20.70
2019-05-22T19:30:22.950Z,20.60
2019-05-22T19:32:53.011Z,20.60
2019-05-22T19:35:22.015Z,20.50
2019-05-22T19:37:51.130Z,20.50
2019-05-22T19:40:20.129Z,20.40
2019-05-22T19:42:49.442Z,20.30
2019-05-22T19:45:18.862Z,20.20
2019-05-22T19:47:51.854Z,20.20
2019-05-22T19:50:23.851Z,20.10
2019-05-22T19:52:56.899Z,20.00
2019-05-22T19:55:27.629Z,19.90
2019-05-22T19:57:57.168Z,19.80
2019-05-22T20:00:26.383Z,19.60
2019-05-22T20:02:55.847Z,19.50
2019-05-22T20:05:25.478Z,19.40
2019-05-22T20:07:54.676Z,19.30
2019-05-22T20:10:24.189Z,19.20
2019-05-22T20:12:53.545Z,19.20
2019-05-22T20:15:24.012Z,19.10
2019-05-22T20:17:53.151Z,19.00
2019-05-22T20:20:23.146Z,18.90
2019-05-22T20:22:52.223Z,18.90
2019-05-22T20:25:21.963Z,18.80
2019-05-22T20:27:51.410Z,18.80
2019-05-22T20:30:22.739Z,18.80
2019-05-22T20:32:51.831Z,18.80
2019-05-22T20:35:21.668Z,18.70
2019-05-22T20:37:51.338Z,18.70
2019-05-22T20:40:22.103Z,18.70
2019-05-22T20:42:51.253Z,18.60
2019-05-22T20:45:23.336Z,18.60
2019-05-22T20:48:07.794Z,18.50
2019-05-22T20:50:37.253Z,18.40
2019-05-22T20:53:07.557Z,18.40
2019-05-22T20:55:38.523Z,18.30
2019-05-22T20:58:08.961Z,18.30
2019-05-22T21:00:39.665Z,18.30
2019-05-22T21:03:08.894Z,18.20
2019-05-22T21:05:38.415Z,18.20
2019-05-22T21:08:12.343Z,18.10
2019-05-22T21:10:48.152Z,18.10
2019-05-22T21:13:18.559Z,18.00
2019-05-22T21:15:48.117Z,18.00
2019-05-22T21:18:20.087Z,17.90
2019-05-22T21:20:55.063Z,17.80
2019-05-22T21:23:23.701Z,17.80
2019-05-22T21:25:52.846Z,17.70
2019-05-22T21:28:22.620Z,17.70
2019-05-22T21:30:54.124Z,17.60
2019-05-22T21:33:23.483Z,17.60
2019-05-22T21:35:53.096Z,17.50
2019-05-22T21:38:22.666Z,17.40
2019-05-22T21:40:52.224Z,17.40
2019-05-22T21:43:22.550Z,17.30
2019-05-22T21:46:10.920Z,17.30
2019-05-22T21:48:41.456Z,17.20
2019-05-22T21:51:10.699Z,17.20
2019-05-22T21:53:40.176Z,17.10
2019-05-22T21:56:09.690Z,17.10
2019-05-22T21:58:39.270Z,17.00
2019-05-22T22:01:27.291Z,17.00
2019-05-22T22:04:04.513Z,16.90
2019-05-22T22:06:34.680Z,16.80
2019-05-22T22:09:03.707Z,16.80
2019-05-22T22:11:33.265Z,16.70
2019-05-22T22:14:02.343Z,16.70
2019-05-22T22:16:32.897Z,16.60
2019-05-22T22:19:02.322Z,16.60
2019-05-22T22:21:31.424Z,16.50
2019-05-22T22:24:01.139Z,16.50
2019-05-22T22:26:30.628Z,16.40
2019-05-22T22:29:00.285Z,16.40
2019-05-22T22:31:31.053Z,16.30
2019-05-22T22:34:06.978Z,16.30
2019-05-22T22:36:36.280Z,16.20
2019-05-22T22:39:10.220Z,16.20
2019-05-22T22:41:39.291Z,16.10
2019-05-22T22:44:10.022Z,16.10
2019-05-22T22:46:49.195Z,16.00
2019-05-22T22:49:20.488Z,16.00
2019-05-22T22:51:50.414Z,15.90
2019-05-22T22:54:20.349Z,15.90
2019-05-22T22:56:49.564Z,15.80
2019-05-22T22:59:19.986Z,15.80
2019-05-22T23:01:50.385Z,15.70
2019-05-22T23:04:19.807Z,15.70
2019-05-22T23:06:48.868Z,15.70
2019-05-22T23:09:17.934Z,15.60
2019-05-22T23:11:48.447Z,15.60
2019-05-22T23:14:17.564Z,15.50
2019-05-22T23:16:47.032Z,15.50
2019-05-22T23:19:32.167Z,15.40
2019-05-22T23:22:01.264Z,15.40
2019-05-22T23:24:30.974Z,15.30
2019-05-22T23:27:00.902Z,15.30
2019-05-22T23:29:32.847Z,15.30
2019-05-22T23:32:02.498Z,15.20
2019-05-22T23:34:32.032Z,15.10
2019-05-22T23:37:02.754Z,15.10
2019-05-22T23:39:33.656Z,15.00
2019-05-22T23:42:07.451Z,15.00
2019-05-22T23:44:37.574Z,14.90
2019-05-22T23:47:08.032Z,14.90
2019-05-22T23:49:39.524Z,14.80
2019-05-22T23:52:10.373Z,14.80
2019-05-22T23:54:40.165Z,14.80
2019-05-22T23:57:13.014Z,14.80
2019-05-22T23:59:44.714Z,14.70
